createdAt,value
2023-05-02T00:00:26.868Z,3.08
2023-05-02T00:01:28.666Z,4.30
2023-05-02T00:02:32.886Z,3.67
2023-05-02T00:03:35.101Z,3.42
2023-05-02T00:04:38.051Z,2.78
2023-05-02T00:05:40.646Z,2.35
2023-05-02T00:06:43.486Z,4.90
2023-05-02T00:07:45.573Z,3.15
2023-05-02T00:08:49.911Z,2.90
2023-05-02T00:09:51.618Z,2.15
2023-05-02T00:10:54.471Z,3.55
2023-05-02T00:11:56.159Z,6.18
2023-05-02T00:12:58.862Z,3.47
2023-05-02T00:14:00.581Z,2.67
2023-05-02T00:15:03.270Z,4.03
2023-05-02T00:16:05.767Z,2.72
2023-05-02T00:17:08.537Z,4.18
2023-05-02T00:18:11.966Z,2.38
2023-05-02T00:19:14.789Z,4.50
2023-05-02T00:20:16.476Z,2.90
2023-05-02T00:21:19.151Z,4.50
2023-05-02T00:22:20.838Z,3.20
2023-05-02T00:23:23.907Z,2.47
2023-05-02T00:24:26.823Z,3.03
2023-05-02T00:25:29.652Z,2.65
2023-05-02T00:26:31.333Z,2.53
2023-05-02T00:27:34.529Z,4.25
2023-05-02T00:28:36.592Z,3.05
2023-05-02T00:29:39.407Z,3.63
2023-05-02T00:30:44.342Z,3.22
2023-05-02T00:31:47.013Z,2.63
2023-05-02T00:32:48.768Z,3.45
2023-05-02T00:33:52.863Z,2.63
2023-05-02T00:34:54.596Z,2.65
2023-05-02T00:35:57.364Z,2.60
2023-05-02T00:36:59.305Z,6.18
2023-05-02T00:38:02.007Z,2.60
2023-05-02T00:39:04.302Z,4.53
2023-05-02T00:40:08.473Z,2.60
2023-05-02T00:41:10.803Z,4.72
2023-05-02T00:42:13.438Z,2.90
2023-05-02T00:43:15.697Z,5.38
2023-05-02T00:44:18.526Z,2.80
2023-05-02T00:45:20.332Z,4.32
2023-05-02T00:46:23.127Z,2.95
2023-05-02T00:47:25.037Z,3.63
2023-05-02T00:48:27.993Z,3.35
2023-05-02T00:49:31.182Z,7.57
2023-05-02T00:50:33.943Z,2.67
2023-05-02T00:51:35.677Z,5.38
2023-05-02T00:52:38.784Z,2.58
2023-05-02T00:53:40.976Z,2.53
2023-05-02T00:54:44.931Z,2.67
2023-05-02T00:55:46.997Z,4.00
2023-05-02T00:56:49.679Z,3.45
2023-05-02T00:57:51.504Z,3.75
2023-05-02T00:58:54.922Z,3.75
2023-05-02T00:59:57.407Z,3.47
2023-05-02T01:01:15.992Z,2.67
2023-05-02T01:02:28.895Z,3.25
2023-05-02T01:03:38.093Z,4.50
2023-05-02T01:04:51.047Z,4.43
2023-05-02T01:06:00.624Z,2.70
2023-05-02T01:07:13.286Z,3.22
2023-05-02T01:08:21.297Z,3.25
2023-05-02T01:09:34.067Z,3.08
2023-05-02T01:10:50.036Z,3.38
2023-05-02T01:11:57.054Z,2.65
2023-05-02T01:13:03.847Z,3.60
2023-05-02T01:14:06.182Z,3.25
2023-05-02T01:15:11.469Z,5.32
2023-05-02T01:16:14.654Z,5.03
2023-05-02T01:17:18.279Z,5.05
2023-05-02T01:18:22.896Z,3.50
2023-05-02T01:19:27.662Z,4.13
2023-05-02T01:20:31.379Z,5.80
2023-05-02T01:21:34.717Z,3.60
2023-05-02T01:22:38.549Z,3.60
2023-05-02T01:23:52.693Z,4.70
2023-05-02T01:25:00.690Z,7.07
2023-05-02T01:26:11.762Z,4.68
2023-05-02T01:27:19.064Z,4.00
2023-05-02T01:28:30.349Z,4.13
2023-05-02T01:29:33.586Z,4.18
2023-05-02T01:30:39.722Z,4.32
2023-05-02T01:31:43.466Z,5.55
2023-05-02T01:32:47.749Z,4.32
2023-05-02T01:33:50.321Z,6.15
2023-05-02T01:34:54.253Z,4.80
2023-05-02T01:35:56.350Z,4.45
2023-05-02T01:36:59.963Z,3.72
2023-05-02T01:38:03.295Z,3.53
2023-05-02T01:39:07.437Z,5.55
2023-05-02T01:40:10.484Z,6.35
2023-05-02T01:41:14.208Z,4.72
2023-05-02T01:42:16.843Z,5.18
2023-05-02T01:43:21.525Z,5.88
2023-05-02T01:44:24.429Z,8.20
2023-05-02T01:45:29.283Z,6.30
2023-05-02T01:46:33.330Z,6.38
2023-05-02T01:47:37.158Z,5.53
2023-05-02T01:48:39.279Z,8.13
2023-05-02T01:49:42.621Z,7.53
2023-05-02T01:50:45.564Z,5.13
2023-05-02T01:51:49.460Z,6.75
2023-05-02T01:52:52.768Z,7.47
2023-05-02T01:53:55.472Z,5.45
2023-05-02T01:54:58.254Z,3.97
2023-05-02T01:56:01.595Z,4.75
2023-05-02T01:57:06.298Z,4.45
2023-05-02T01:58:09.067Z,4.93
2023-05-02T01:59:11.789Z,5.63
2023-05-02T02:00:15.333Z,6.18
2023-05-02T02:01:18.646Z,5.78
2023-05-02T02:02:22.336Z,4.57
2023-05-02T02:03:24.728Z,6.85
2023-05-02T02:04:27.711Z,5.38
2023-05-02T02:05:29.826Z,5.50
2023-05-02T02:06:32.625Z,7.40
2023-05-02T02:07:34.403Z,5.45
2023-05-02T02:08:37.310Z,5.38
2023-05-02T02:09:39.259Z,7.45
2023-05-02T02:10:44.879Z,5.05
2023-05-02T02:11:49.573Z,6.28
2023-05-02T02:12:53.840Z,4.82
2023-05-02T02:14:00.509Z,5.22
2023-05-02T02:15:07.944Z,7.75
2023-05-02T02:16:11.692Z,4.93
2023-05-02T02:17:19.488Z,5.57
2023-05-02T02:18:25.271Z,6.40
2023-05-02T02:19:28.621Z,7.78
2023-05-02T02:20:31.961Z,6.22
2023-05-02T02:21:35.636Z,5.75
2023-05-02T02:22:39.154Z,4.85
2023-05-02T02:23:44.029Z,5.80
2023-05-02T02:24:46.909Z,5.07
2023-05-02T02:25:50.335Z,5.05
2023-05-02T02:26:52.197Z,5.88
2023-05-02T02:27:55.002Z,7.15
2023-05-02T02:28:56.718Z,9.52
2023-05-02T02:29:59.692Z,5.53
2023-05-02T02:31:02.632Z,6.03
2023-05-02T02:32:05.539Z,6.88
2023-05-02T02:33:08.930Z,6.45
2023-05-02T02:34:11.710Z,6.50
2023-05-02T02:35:13.528Z,8.32
2023-05-02T02:36:21.474Z,5.25
2023-05-02T02:37:26.662Z,5.50
2023-05-02T02:38:33.598Z,4.68
2023-05-02T02:39:41.967Z,4.38
2023-05-02T02:40:47.267Z,4.95
2023-05-02T02:41:54.152Z,4.72
2023-05-02T02:43:01.570Z,4.22
2023-05-02T02:44:06.878Z,7.00
2023-05-02T02:45:17.897Z,5.43
2023-05-02T02:46:31.696Z,6.43
2023-05-02T02:47:37.376Z,5.47
2023-05-02T02:48:46.551Z,4.70
2023-05-02T02:49:50.884Z,5.75
2023-05-02T02:51:01.217Z,4.93
2023-05-02T02:52:06.470Z,7.45
2023-05-02T02:53:10.889Z,5.60
2023-05-02T02:54:25.933Z,6.05
2023-05-02T02:55:38.501Z,6.65
2023-05-02T02:56:42.259Z,6.55
2023-05-02T02:57:49.555Z,8.63
2023-05-02T02:58:56.866Z,5.57
2023-05-02T03:00:02.934Z,11.18
2023-05-02T03:01:06.784Z,10.77
2023-05-02T03:02:11.217Z,9.77
2023-05-02T03:03:14.538Z,7.88
2023-05-02T03:04:20.244Z,9.98
2023-05-02T03:05:22.781Z,7.85
2023-05-02T03:06:26.117Z,8.82
2023-05-02T03:07:28.247Z,10.13
2023-05-02T03:08:40.162Z,8.57
2023-05-02T03:09:42.410Z,6.72
2023-05-02T03:10:45.085Z,9.80
2023-05-02T03:11:46.828Z,9.77
2023-05-02T03:12:49.606Z,13.23
2023-05-02T03:13:52.764Z,9.15
2023-05-02T03:15:00.483Z,7.90
2023-05-02T03:16:34.662Z,10.20
2023-05-02T03:17:37.461Z,9.25
2023-05-02T03:18:40.449Z,9.85
2023-05-02T03:19:44.476Z,10.85
2023-05-02T03:20:46.218Z,10.18
2023-05-02T03:21:49.009Z,9.23
2023-05-02T03:22:50.734Z,12.15
2023-05-02T03:23:53.650Z,11.93
2023-05-02T03:24:56.322Z,9.90
2023-05-02T03:25:58.123Z,7.85
2023-05-02T03:27:00.915Z,10.38
2023-05-02T03:28:02.767Z,9.45
2023-05-02T03:29:05.467Z,12.48
2023-05-02T03:30:08.511Z,9.15
2023-05-02T03:31:11.223Z,14.40
2023-05-02T03:32:14.043Z,14.95
2023-05-02T03:33:15.859Z,10.98
2023-05-02T03:34:19.738Z,8.85
2023-05-02T03:35:23.054Z,8.90
2023-05-02T03:36:25.812Z,6.40
2023-05-02T03:37:27.486Z,8.02
2023-05-02T03:38:30.761Z,8.50
2023-05-02T03:39:32.490Z,10.75
2023-05-02T03:40:35.223Z,10.95
2023-05-02T03:41:37.048Z,9.05
2023-05-02T03:42:41.383Z,12.27
2023-05-02T03:43:43.053Z,10.30
2023-05-02T03:44:45.801Z,11.02
2023-05-02T03:45:48.743Z,9.50
2023-05-02T03:46:51.774Z,10.35
2023-05-02T03:47:53.617Z,11.70
2023-05-02T03:48:56.426Z,13.10
2023-05-02T03:49:59.319Z,13.10
2023-05-02T03:51:04.487Z,9.43
2023-05-02T03:52:06.249Z,10.95
2023-05-02T03:53:10.095Z,13.50
2023-05-02T03:54:11.846Z,11.27
2023-05-02T03:55:15.145Z,10.30
2023-05-02T03:56:20.172Z,15.75
2023-05-02T03:57:23.059Z,13.27
2023-05-02T03:58:25.583Z,13.20
2023-05-02T03:59:28.745Z,13.15
2023-05-02T04:00:31.607Z,11.27
2023-05-02T04:01:34.382Z,12.15
2023-05-02T04:02:36.368Z,13.98
2023-05-02T04:03:39.269Z,11.85
2023-05-02T04:04:41.170Z,12.70
2023-05-02T04:05:44.352Z,12.20
2023-05-02T04:06:47.521Z,11.98
2023-05-02T04:07:50.257Z,11.50
2023-05-02T04:08:51.904Z,11.32
2023-05-02T04:09:54.775Z,12.20
2023-05-02T04:10:57.561Z,10.50
2023-05-02T04:11:59.365Z,12.07
2023-05-02T04:13:03.082Z,13.00
2023-05-02T04:14:04.797Z,10.55
2023-05-02T04:15:08.564Z,10.82
2023-05-02T04:16:10.330Z,10.50
2023-05-02T04:17:13.632Z,11.57
2023-05-02T04:18:15.544Z,10.88
2023-05-02T04:19:19.120Z,11.88
2023-05-02T04:20:20.862Z,10.48
2023-05-02T04:21:23.545Z,12.20
2023-05-02T04:22:29.521Z,10.70
2023-05-02T04:23:32.240Z,9.85
2023-05-02T04:24:33.999Z,11.95
2023-05-02T04:25:36.707Z,11.60
2023-05-02T04:26:38.432Z,11.70
2023-05-02T04:27:41.095Z,10.65
2023-05-02T04:28:42.824Z,15.65
2023-05-02T04:29:45.592Z,11.18
2023-05-02T04:30:47.372Z,13.43
2023-05-02T04:31:50.921Z,14.75
2023-05-02T04:32:53.547Z,15.30
2023-05-02T04:33:56.301Z,14.10
2023-05-02T04:34:58.028Z,13.18
2023-05-02T04:36:01.185Z,18.67
2023-05-02T04:37:03.132Z,12.15
2023-05-02T04:38:07.249Z,15.27
2023-05-02T04:39:10.237Z,13.63
2023-05-02T04:40:13.024Z,14.63
2023-05-02T04:41:16.198Z,13.20
2023-05-02T04:42:17.978Z,15.10
2023-05-02T04:43:22.463Z,20.65
2023-05-02T04:44:26.190Z,12.65
2023-05-02T04:45:28.939Z,16.85
2023-05-02T04:46:30.836Z,16.45
2023-05-02T04:47:33.583Z,18.30
2023-05-02T04:48:35.355Z,17.42
2023-05-02T04:49:38.055Z,16.48
2023-05-02T04:50:41.059Z,15.35
2023-05-02T04:51:43.900Z,18.55
2023-05-02T04:52:45.658Z,17.92
2023-05-02T04:53:50.353Z,16.30
2023-05-02T04:54:52.396Z,17.83
2023-05-02T04:55:55.062Z,20.48
2023-05-02T04:56:57.711Z,20.02
2023-05-02T04:57:59.398Z,19.48
2023-05-02T04:59:02.110Z,22.80
2023-05-02T05:00:04.471Z,18.58
2023-05-02T05:01:07.233Z,18.15
2023-05-02T05:02:12.582Z,17.02
2023-05-02T05:03:15.539Z,21.70
2023-05-02T05:04:17.561Z,20.83
2023-05-02T05:05:20.389Z,16.42
2023-05-02T05:06:22.710Z,18.80
2023-05-02T05:07:25.673Z,19.23
2023-05-02T05:08:27.487Z,21.95
2023-05-02T05:09:31.550Z,24.92
2023-05-02T05:10:33.271Z,19.92
2023-05-02T05:11:36.055Z,21.85
2023-05-02T05:12:37.778Z,17.85
2023-05-02T05:13:40.519Z,19.40
2023-05-02T05:14:42.325Z,19.85
2023-05-02T05:15:45.358Z,20.10
2023-05-02T05:16:47.282Z,24.45
2023-05-02T05:17:50.084Z,22.63
2023-05-02T05:18:53.846Z,22.40
2023-05-02T05:19:56.581Z,28.33
2023-05-02T05:20:58.273Z,20.25
2023-05-02T05:22:01.048Z,21.92
2023-05-02T05:23:02.761Z,24.33
2023-05-02T05:24:06.268Z,27.58
2023-05-02T05:25:10.547Z,24.48
2023-05-02T05:26:15.258Z,32.17
2023-05-02T05:27:17.066Z,25.75
2023-05-02T05:28:19.851Z,24.60
2023-05-02T05:29:21.576Z,25.00
2023-05-02T05:30:25.494Z,26.70
2023-05-02T05:31:27.296Z,27.05
2023-05-02T05:32:30.077Z,27.02
2023-05-02T05:33:32.059Z,26.23
2023-05-02T05:34:34.735Z,26.23
2023-05-02T05:35:36.568Z,25.95
2023-05-02T05:36:41.051Z,28.52
2023-05-02T05:37:44.583Z,25.33
2023-05-02T05:38:46.373Z,34.45
2023-05-02T05:39:49.357Z,27.48
2023-05-02T05:40:52.464Z,32.30
2023-05-02T05:41:55.179Z,29.00
2023-05-02T05:42:56.928Z,29.30
2023-05-02T05:43:59.623Z,30.30
2023-05-02T05:45:01.356Z,31.42
2023-05-02T05:46:04.252Z,31.27
2023-05-02T05:47:06.001Z,30.17
2023-05-02T05:48:08.779Z,34.95
2023-05-02T05:49:10.610Z,30.08
2023-05-02T05:50:13.320Z,30.50
2023-05-02T05:51:15.081Z,35.42
2023-05-02T05:52:17.753Z,35.58
2023-05-02T05:53:19.645Z,29.55
2023-05-02T05:54:22.355Z,30.98
2023-05-02T05:55:24.135Z,33.83
2023-05-02T05:56:28.201Z,31.65
2023-05-02T05:57:30.148Z,31.77
2023-05-02T05:58:32.871Z,31.65
2023-05-02T05:59:37.583Z,34.22
2023-05-02T06:00:40.784Z,29.95
2023-05-02T06:01:42.821Z,33.28
2023-05-02T06:02:45.576Z,32.65
2023-05-02T06:03:47.624Z,29.75
2023-05-02T06:04:50.628Z,32.05
2023-05-02T06:05:52.533Z,30.80
2023-05-02T06:06:55.369Z,38.13
2023-05-02T06:07:57.390Z,33.05
2023-05-02T06:09:00.100Z,31.60
2023-05-02T06:10:02.102Z,31.08
2023-05-02T06:11:05.399Z,33.92
2023-05-02T06:12:08.433Z,36.28
2023-05-02T06:13:11.247Z,33.70
2023-05-02T06:14:12.938Z,36.25
2023-05-02T06:15:15.960Z,33.92
2023-05-02T06:16:18.226Z,32.00
2023-05-02T06:17:20.892Z,34.78
2023-05-02T06:18:22.666Z,32.75
2023-05-02T06:19:25.512Z,31.65
2023-05-02T06:20:28.381Z,30.05
2023-05-02T06:21:31.392Z,32.20
2023-05-02T06:22:33.051Z,29.58
2023-05-02T06:23:35.782Z,38.97
2023-05-02T06:24:38.471Z,30.98
2023-05-02T06:25:40.134Z,34.35
2023-05-02T06:26:42.845Z,32.35
2023-05-02T06:27:46.918Z,30.17
2023-05-02T06:28:48.607Z,32.80
2023-05-02T06:29:52.395Z,33.38
2023-05-02T06:30:57.882Z,31.25
2023-05-02T06:32:00.729Z,34.42
2023-05-02T06:33:04.552Z,32.65
2023-05-02T06:34:07.853Z,31.70
2023-05-02T06:35:10.206Z,30.10
2023-05-02T06:36:12.897Z,35.83
2023-05-02T06:37:14.690Z,35.55
2023-05-02T06:38:18.511Z,29.83
2023-05-02T06:39:20.199Z,35.47
2023-05-02T06:40:22.899Z,33.88
2023-05-02T06:41:25.530Z,33.80
2023-05-02T06:42:27.215Z,31.52
2023-05-02T06:43:31.281Z,32.47
2023-05-02T06:44:33.013Z,29.58
2023-05-02T06:45:35.701Z,33.67
2023-05-02T06:46:37.435Z,32.13
2023-05-02T06:47:40.227Z,30.40
2023-05-02T06:48:43.025Z,30.73
2023-05-02T06:49:44.762Z,28.20
2023-05-02T06:50:47.434Z,31.77
2023-05-02T06:51:50.255Z,32.03
2023-05-02T06:52:52.014Z,28.90
2023-05-02T06:53:54.688Z,27.45
2023-05-02T06:54:56.374Z,29.48
2023-05-02T06:55:59.144Z,28.52
2023-05-02T06:57:02.180Z,28.73
2023-05-02T06:58:03.909Z,37.65
2023-05-02T06:59:08.028Z,32.40
2023-05-02T07:00:11.004Z,29.38
2023-05-02T07:01:13.726Z,31.77
2023-05-02T07:02:15.431Z,30.20
2023-05-02T07:03:18.155Z,29.85
2023-05-02T07:04:20.029Z,31.02
2023-05-02T07:05:22.803Z,31.90
2023-05-02T07:06:24.745Z,28.92
2023-05-02T07:07:27.507Z,34.25
2023-05-02T07:08:30.195Z,30.70
2023-05-02T07:09:31.956Z,31.13
2023-05-02T07:10:34.883Z,31.92
2023-05-02T07:11:36.653Z,30.52
2023-05-02T07:12:40.070Z,32.30
2023-05-02T07:13:41.786Z,32.42
2023-05-02T07:14:46.891Z,31.13
2023-05-02T07:15:48.746Z,30.40
2023-05-02T07:16:51.535Z,32.10
2023-05-02T07:17:53.767Z,29.33
2023-05-02T07:18:56.540Z,27.73
2023-05-02T07:19:59.617Z,27.30
2023-05-02T07:21:02.467Z,30.58
2023-05-02T07:22:05.383Z,25.35
2023-05-02T07:23:07.132Z,32.13
2023-05-02T07:24:09.814Z,29.30
2023-05-02T07:25:11.830Z,33.60
2023-05-02T07:26:14.512Z,31.17
2023-05-02T07:27:16.172Z,25.17
2023-05-02T07:28:18.987Z,32.60
2023-05-02T07:29:20.669Z,27.08
2023-05-02T07:30:24.925Z,29.38
2023-05-02T07:31:26.870Z,32.72
2023-05-02T07:32:29.618Z,28.13
2023-05-02T07:33:32.431Z,28.90
2023-05-02T07:34:34.148Z,23.63
2023-05-02T07:35:36.838Z,24.23
2023-05-02T07:36:39.392Z,27.00
2023-05-02T07:37:42.126Z,27.85
2023-05-02T07:38:43.843Z,28.02
2023-05-02T07:39:46.572Z,23.05
2023-05-02T07:40:49.244Z,23.83
2023-05-02T07:41:52.399Z,26.58
2023-05-02T07:42:55.128Z,24.58
2023-05-02T07:43:58.309Z,24.65
2023-05-02T07:45:00.308Z,24.42
2023-05-02T07:46:09.305Z,28.50
2023-05-02T07:47:12.046Z,21.67
2023-05-02T07:48:14.767Z,27.67
2023-05-02T07:49:16.515Z,23.63
2023-05-02T07:50:19.364Z,22.33
2023-05-02T07:51:21.616Z,22.65
2023-05-02T07:52:24.318Z,23.92
2023-05-02T07:53:26.302Z,26.25
2023-05-02T07:54:28.982Z,29.65
2023-05-02T07:55:33.210Z,27.17
2023-05-02T07:56:36.196Z,24.10
2023-05-02T07:57:38.937Z,25.67
2023-05-02T07:58:41.650Z,24.10
2023-05-02T07:59:44.296Z,25.63
2023-05-02T08:00:46.745Z,23.80
2023-05-02T08:01:50.815Z,28.33
2023-05-02T08:02:53.722Z,23.05
2023-05-02T08:03:56.770Z,24.90
2023-05-02T08:04:59.713Z,24.00
2023-05-02T08:06:04.005Z,24.45
2023-05-02T08:07:05.767Z,22.88
2023-05-02T08:08:08.588Z,22.13
2023-05-02T08:09:11.225Z,24.25
2023-05-02T08:10:13.923Z,23.55
2023-05-02T08:11:16.707Z,24.98
2023-05-02T08:12:19.381Z,26.52
2023-05-02T08:13:21.221Z,23.02
2023-05-02T08:14:23.881Z,20.92
2023-05-02T08:15:25.797Z,22.05
2023-05-02T08:16:28.594Z,23.42
2023-05-02T08:17:31.951Z,22.60
2023-05-02T08:18:34.666Z,18.95
2023-05-02T08:19:36.356Z,21.50
2023-05-02T08:20:39.048Z,17.85
2023-05-02T08:21:42.429Z,16.42
2023-05-02T08:22:44.143Z,21.55
2023-05-02T08:23:47.277Z,19.25
2023-05-02T08:24:49.982Z,18.15
2023-05-02T08:25:52.751Z,15.30
2023-05-02T08:26:54.443Z,15.80
2023-05-02T08:27:57.237Z,14.20
2023-05-02T08:29:01.057Z,15.43
2023-05-02T08:30:03.295Z,18.40
2023-05-02T08:31:06.508Z,15.10
2023-05-02T08:32:09.401Z,16.10
2023-05-02T08:33:13.540Z,17.17
2023-05-02T08:34:15.348Z,17.92
2023-05-02T08:35:18.239Z,17.52
2023-05-02T08:36:19.939Z,16.27
2023-05-02T08:37:22.751Z,17.00
2023-05-02T08:38:25.498Z,16.35
2023-05-02T08:39:28.122Z,19.45
2023-05-02T08:40:41.425Z,19.58
2023-05-02T08:41:45.591Z,24.05
2023-05-02T08:42:48.311Z,17.42
2023-05-02T08:43:50.030Z,17.85
2023-05-02T08:44:52.810Z,22.75
2023-05-02T08:45:55.673Z,20.58
2023-05-02T08:46:57.689Z,19.83
2023-05-02T08:48:01.233Z,20.80
2023-05-02T08:49:06.766Z,18.92
2023-05-02T08:50:09.403Z,15.63
2023-05-02T08:51:15.303Z,19.55
2023-05-02T08:52:17.930Z,19.63
2023-05-02T08:53:21.147Z,20.40
2023-05-02T08:54:25.844Z,16.52
2023-05-02T08:55:27.713Z,19.70
2023-05-02T08:56:30.785Z,19.45
2023-05-02T08:57:33.543Z,18.88
2023-05-02T08:58:36.666Z,18.80
2023-05-02T08:59:39.413Z,20.08
2023-05-02T09:00:42.174Z,18.77
2023-05-02T09:01:47.586Z,20.05
2023-05-02T09:02:57.227Z,17.13
2023-05-02T09:04:00.002Z,17.58
2023-05-02T09:05:07.573Z,17.67
2023-05-02T09:06:12.842Z,17.83
2023-05-02T09:07:15.757Z,19.95
2023-05-02T09:08:22.368Z,16.77
2023-05-02T09:09:25.500Z,16.05
2023-05-02T09:10:29.804Z,18.45
2023-05-02T09:11:32.461Z,17.52
2023-05-02T09:12:34.144Z,21.02
2023-05-02T09:13:38.419Z,18.25
2023-05-02T09:14:41.106Z,17.60
2023-05-02T09:15:42.904Z,19.60
2023-05-02T09:16:45.774Z,18.17
2023-05-02T09:17:48.322Z,16.90
2023-05-02T09:18:52.819Z,19.00
2023-05-02T09:20:01.322Z,19.67
2023-05-02T09:21:08.916Z,21.35
2023-05-02T09:22:11.876Z,18.70
2023-05-02T09:23:14.203Z,18.20
2023-05-02T09:24:18.069Z,18.52
2023-05-02T09:25:19.970Z,18.08
2023-05-02T09:26:23.715Z,20.95
2023-05-02T09:27:26.205Z,20.88
2023-05-02T09:28:43.175Z,19.13
2023-05-02T09:29:47.049Z,19.70
2023-05-02T09:30:49.901Z,20.60
2023-05-02T09:31:56.180Z,19.40
2023-05-02T09:32:59.389Z,17.70
2023-05-02T09:34:10.108Z,20.42
2023-05-02T09:35:13.553Z,16.92
2023-05-02T09:36:20.091Z,21.00
2023-05-02T09:37:35.190Z,20.83
2023-05-02T09:38:38.871Z,16.98
2023-05-02T09:39:41.671Z,17.73
2023-05-02T09:40:54.596Z,19.27
2023-05-02T09:41:58.108Z,21.85
2023-05-02T09:42:59.850Z,20.52
2023-05-02T09:44:02.557Z,18.15
2023-05-02T09:45:05.064Z,16.27
2023-05-02T09:46:09.229Z,17.70
2023-05-02T09:47:11.082Z,19.23
2023-05-02T09:48:15.128Z,16.52
2023-05-02T09:49:20.069Z,21.52
2023-05-02T09:50:35.029Z,18.98
2023-05-02T09:51:39.461Z,20.30
2023-05-02T09:52:42.224Z,16.20
2023-05-02T09:53:45.497Z,20.00
2023-05-02T09:54:50.562Z,15.90
2023-05-02T09:56:01.210Z,19.02
2023-05-02T09:57:04.636Z,19.58
2023-05-02T09:58:06.623Z,18.85
2023-05-02T09:59:16.338Z,18.80
2023-05-02T10:00:20.053Z,22.52
2023-05-02T10:01:22.716Z,19.30
2023-05-02T10:02:24.904Z,21.52
2023-05-02T10:03:31.870Z,19.73
2023-05-02T10:04:38.840Z,17.38
2023-05-02T10:05:40.986Z,17.30
2023-05-02T10:06:45.421Z,19.20
2023-05-02T10:07:47.464Z,18.65
2023-05-02T10:08:50.303Z,20.33
2023-05-02T10:09:53.086Z,19.15
2023-05-02T10:10:57.072Z,18.52
2023-05-02T10:12:04.924Z,15.98
2023-05-02T10:13:08.933Z,16.67
2023-05-02T10:14:12.916Z,19.98
2023-05-02T10:15:16.318Z,17.33
2023-05-02T10:16:25.014Z,14.73
2023-05-02T10:17:29.813Z,15.18
2023-05-02T10:18:40.017Z,16.40
2023-05-02T10:19:46.592Z,18.02
2023-05-02T10:20:58.018Z,16.70
2023-05-02T10:22:03.005Z,17.33
2023-05-02T10:23:05.074Z,18.58
2023-05-02T10:24:07.870Z,16.30
2023-05-02T10:25:09.834Z,18.63
2023-05-02T10:26:16.070Z,17.48
2023-05-02T10:27:17.876Z,15.38
2023-05-02T10:28:20.900Z,21.70
2023-05-02T10:29:23.676Z,14.32
2023-05-02T10:30:25.904Z,15.70
2023-05-02T10:31:29.420Z,13.88
2023-05-02T10:32:33.828Z,11.82
2023-05-02T10:33:36.780Z,15.40
2023-05-02T10:34:39.345Z,17.08
2023-05-02T10:35:45.669Z,13.05
2023-05-02T10:36:49.013Z,13.20
2023-05-02T10:37:52.596Z,12.82
2023-05-02T10:38:55.998Z,15.95
2023-05-02T10:39:59.029Z,14.63
2023-05-02T10:41:03.128Z,14.25
2023-05-02T10:42:06.155Z,13.05
2023-05-02T10:43:09.086Z,16.23
2023-05-02T10:44:11.031Z,12.65
2023-05-02T10:45:14.648Z,12.73
2023-05-02T10:46:31.650Z,11.45
2023-05-02T10:47:34.421Z,13.30
2023-05-02T10:48:38.419Z,17.60
2023-05-02T10:49:51.037Z,14.80
2023-05-02T10:50:53.693Z,12.32
2023-05-02T10:51:56.433Z,12.65
2023-05-02T10:52:59.809Z,12.45
2023-05-02T10:54:24.787Z,13.65
2023-05-02T10:55:26.490Z,13.18
2023-05-02T10:56:29.353Z,16.63
2023-05-02T10:57:31.082Z,13.77
2023-05-02T10:58:33.755Z,11.82
2023-05-02T10:59:38.183Z,14.88
2023-05-02T11:00:40.037Z,12.07
2023-05-02T11:01:43.007Z,13.45
2023-05-02T11:02:49.141Z,11.48
2023-05-02T11:03:56.414Z,11.98
2023-05-02T11:05:04.417Z,12.63
2023-05-02T11:06:06.961Z,11.70
2023-05-02T11:07:19.897Z,12.73
2023-05-02T11:08:32.991Z,11.82
2023-05-02T11:09:34.818Z,11.02
2023-05-02T11:10:37.529Z,11.65
2023-05-02T11:11:41.099Z,11.93
2023-05-02T11:12:48.903Z,9.80
2023-05-02T11:13:50.815Z,12.02
2023-05-02T11:14:53.524Z,11.23
2023-05-02T11:15:56.938Z,23.08
2023-05-02T11:17:10.174Z,10.35
2023-05-02T11:18:13.501Z,12.02
2023-05-02T11:19:16.241Z,12.15
2023-05-02T11:20:21.796Z,8.27
2023-05-02T11:21:29.626Z,9.13
2023-05-02T11:22:31.695Z,11.35
2023-05-02T11:23:36.984Z,9.85
2023-05-02T11:24:39.726Z,9.95
2023-05-02T11:25:43.506Z,9.73
2023-05-02T11:26:45.225Z,11.82
2023-05-02T11:27:49.338Z,11.40
2023-05-02T11:28:52.740Z,9.05
2023-05-02T11:29:54.975Z,11.35
2023-05-02T11:30:58.044Z,10.60
2023-05-02T11:31:59.849Z,9.25
2023-05-02T11:33:29.624Z,9.75
2023-05-02T11:34:43.533Z,9.30
2023-05-02T11:35:46.821Z,9.15
2023-05-02T11:36:49.536Z,7.82
2023-05-02T11:37:53.711Z,8.48
2023-05-02T11:38:57.736Z,6.55
2023-05-02T11:40:11.699Z,6.97
2023-05-02T11:41:14.486Z,6.95
2023-05-02T11:42:29.368Z,7.07
2023-05-02T11:43:32.740Z,9.05
2023-05-02T11:44:35.785Z,5.63
2023-05-02T11:45:39.178Z,9.35
2023-05-02T11:46:42.278Z,7.00
2023-05-02T11:47:46.200Z,6.43
2023-05-02T11:48:49.915Z,7.10
2023-05-02T11:49:51.871Z,6.35
2023-05-02T11:50:56.404Z,6.95
2023-05-02T11:52:00.138Z,4.80
2023-05-02T11:53:01.931Z,6.72
2023-05-02T11:54:07.694Z,5.45
2023-05-02T11:55:15.868Z,4.60
2023-05-02T11:56:24.690Z,9.43
2023-05-02T11:57:27.917Z,6.15
2023-05-02T11:58:32.735Z,5.43
2023-05-02T11:59:50.828Z,7.78
2023-05-02T12:00:54.498Z,5.55
2023-05-02T12:01:58.146Z,5.65
2023-05-02T12:03:00.062Z,6.25
2023-05-02T12:04:04.047Z,5.50
2023-05-02T12:05:06.694Z,6.40
2023-05-02T12:06:12.282Z,5.82
2023-05-02T12:07:14.472Z,4.57
2023-05-02T12:08:22.633Z,3.20
2023-05-02T12:09:26.942Z,5.03
2023-05-02T12:10:36.497Z,5.15
2023-05-02T12:11:39.188Z,4.43
2023-05-02T12:12:43.962Z,4.68
2023-05-02T12:13:48.796Z,5.63
2023-05-02T12:14:50.758Z,4.75
2023-05-02T12:15:55.079Z,3.53
2023-05-02T12:16:59.509Z,4.50
2023-05-02T12:18:01.502Z,6.88
2023-05-02T12:19:04.799Z,6.00
2023-05-02T12:20:07.969Z,4.88
2023-05-02T12:21:11.036Z,3.95
2023-05-02T12:22:14.504Z,4.53
2023-05-02T12:23:16.454Z,4.97
2023-05-02T12:24:19.287Z,8.20
2023-05-02T12:25:22.384Z,5.47
2023-05-02T12:26:29.549Z,4.75
2023-05-02T12:27:33.293Z,3.95
2023-05-02T12:28:50.433Z,7.55
2023-05-02T12:29:53.166Z,7.72
2023-05-02T12:30:56.016Z,4.65
2023-05-02T12:31:59.923Z,3.90
2023-05-02T12:33:03.681Z,2.78
2023-05-02T12:34:06.491Z,4.25
2023-05-02T12:35:21.580Z,5.25
2023-05-02T12:36:24.349Z,5.85
2023-05-02T12:37:28.357Z,3.50
2023-05-02T12:38:31.173Z,4.35
2023-05-02T12:39:36.651Z,4.90
2023-05-02T12:40:47.003Z,4.03
2023-05-02T12:41:49.653Z,4.35
2023-05-02T12:43:01.252Z,3.53
2023-05-02T12:44:04.308Z,6.35
2023-05-02T12:45:16.936Z,3.63
2023-05-02T12:46:20.167Z,12.68
2023-05-02T12:47:22.715Z,3.45
2023-05-02T12:48:26.833Z,4.25
2023-05-02T12:49:29.483Z,4.47
2023-05-02T12:50:38.106Z,4.78
2023-05-02T12:51:41.760Z,3.45
2023-05-02T12:52:47.519Z,3.75
2023-05-02T12:53:50.403Z,4.72
2023-05-02T12:54:53.301Z,3.38
2023-05-02T12:56:03.782Z,5.72
2023-05-02T12:57:06.577Z,4.22
2023-05-02T12:58:09.223Z,3.97
2023-05-02T12:59:13.177Z,3.33
2023-05-02T13:00:18.162Z,4.38
2023-05-02T13:01:20.877Z,4.47
2023-05-02T13:02:23.871Z,4.90
2023-05-02T13:03:28.240Z,9.00
2023-05-02T13:04:37.591Z,8.48
2023-05-02T13:05:40.355Z,6.13
2023-05-02T13:06:42.600Z,4.22
2023-05-02T13:07:46.080Z,6.35
2023-05-02T13:08:48.745Z,5.75
2023-05-02T13:09:50.430Z,6.32
2023-05-02T13:10:53.207Z,6.90
2023-05-02T13:11:57.092Z,7.57
2023-05-02T13:12:59.763Z,9.07
2023-05-02T13:14:04.166Z,6.85
2023-05-02T13:15:08.444Z,7.20
2023-05-02T13:16:11.451Z,6.32
2023-05-02T13:17:13.383Z,4.93
2023-05-02T13:18:16.274Z,7.32
2023-05-02T13:19:19.011Z,7.07
2023-05-02T13:20:22.024Z,8.82
2023-05-02T13:21:24.802Z,7.93
2023-05-02T13:22:26.856Z,7.88
2023-05-02T13:23:29.544Z,7.20
2023-05-02T13:24:31.244Z,4.70
2023-05-02T13:25:33.931Z,8.45
2023-05-02T13:26:35.649Z,8.20
2023-05-02T13:27:41.032Z,7.43
2023-05-02T13:28:43.723Z,8.43
2023-05-02T13:29:46.066Z,7.70
2023-05-02T13:30:48.985Z,5.13
2023-05-02T13:31:50.764Z,8.27
2023-05-02T13:32:53.794Z,4.43
2023-05-02T13:33:55.785Z,7.32
2023-05-02T13:34:58.548Z,6.10
2023-05-02T13:36:00.492Z,5.55
2023-05-02T13:37:03.152Z,5.60
2023-05-02T13:38:04.840Z,5.35
2023-05-02T13:39:07.672Z,5.97
2023-05-02T13:40:09.953Z,6.07
2023-05-02T13:41:12.705Z,5.22
2023-05-02T13:42:14.434Z,3.70
2023-05-02T13:43:18.460Z,7.70
2023-05-02T13:44:20.311Z,4.90
2023-05-02T13:45:23.142Z,4.65
2023-05-02T13:46:24.850Z,5.88
2023-05-02T13:47:27.673Z,12.00
2023-05-02T13:48:30.063Z,3.95
2023-05-02T13:49:32.724Z,5.70
2023-05-02T13:50:37.336Z,6.82
2023-05-02T13:51:39.145Z,3.85
2023-05-02T13:52:41.848Z,3.50
2023-05-02T13:53:44.527Z,3.42